CheckWX is a tool to help pilots better visualize weather data.  It is not intended as a substitute for an official pre-flight weather briefing.

08:57:20 UTC

KSLG METAR
Smith Field Airport
Siloam Springs, Arkansas, USA
Current

1 hour ago

KSLG 240756Z AUTO 16009KT 10SM -RA OVC006 10/09 A2972 RMK AO2 SLP063 P0001 T01000094 TSNO $
Observed
Feb-24 @ 07:56 UTC
Wind
  • 160° at 9 KTS
Visibility
10 SM
Flight Rules
IFR
Conditions
Light Rain
Cloud Levels
  • Overcast at 600' AGL
Temperature
10°C / 50°F
Dewpoint
C / 48°F
Humidity
94%
Altimeter
29.72" Hg
Pressure
1006.42 hPa
Current Rain
0.01"
Previous

2 hours ago

KSLG 240720Z AUTO 14008KT 10SM -RA OVC008 09/09 A2974 RMK AO2 CIG 007V011 P0000 TSNO $
Observed
Feb-24 @ 07:20 UTC
Wind
  • 140° at 8 KTS
Visibility
10 SM
Flight Rules
IFR
Conditions
Light Rain
Cloud Levels
  • Overcast at 800' AGL
Temperature
C / 48°F
Dewpoint
C / 48°F
Humidity
100%
Altimeter
29.74" Hg
Pressure
1007.12 hPa
Current Rain
0.01"
Previous

2 hours ago

KSLG 240656Z AUTO 14008KT 10SM -RA OVC012 09/08 A2975 RMK AO2 SLP074 P0003 T00940083 TSNO $
Observed
Feb-24 @ 06:56 UTC
Wind
  • 140° at 8 KTS
Visibility
10 SM
Flight Rules
MVFR
Conditions
Light Rain
Cloud Levels
  • Overcast at 1,200' AGL
Temperature
C / 48°F
Dewpoint
C / 46°F
Humidity
94%
Altimeter
29.75" Hg
Pressure
1007.42 hPa
Current Rain
0.03"